sensor_id;sensor_type;location;lat;lon;timestamp;P1;durP1;ratioP1;P2;durP2;ratioP2
46751;SDS011;32497;48.936;9.270;2023-07-09T00:04:30;6.18;;;2.92;;
46751;SDS011;32497;48.936;9.270;2023-07-09T00:09:33;5.72;;;2.50;;
46751;SDS011;32497;48.936;9.270;2023-07-09T00:14:34;5.05;;;2.88;;
46751;SDS011;32497;48.936;9.270;2023-07-09T00:19:35;7.15;;;4.03;;
46751;SDS011;32497;48.936;9.270;2023-07-09T00:24:37;5.28;;;2.60;;
46751;SDS011;32497;48.936;9.270;2023-07-09T00:29:38;4.13;;;2.47;;
46751;SDS011;32497;48.936;9.270;2023-07-09T00:34:39;6.93;;;3.78;;
46751;SDS011;32497;48.936;9.270;2023-07-09T00:39:42;3.67;;;2.50;;
46751;SDS011;32497;48.936;9.270;2023-07-09T00:44:43;4.82;;;2.53;;
46751;SDS011;32497;48.936;9.270;2023-07-09T00:49:46;3.65;;;2.60;;
46751;SDS011;32497;48.936;9.270;2023-07-09T00:54:49;3.75;;;2.30;;
46751;SDS011;32497;48.936;9.270;2023-07-09T00:59:53;3.42;;;2.28;;
46751;SDS011;32497;48.936;9.270;2023-07-09T01:04:58;3.53;;;2.10;;
46751;SDS011;32497;48.936;9.270;2023-07-09T01:10:03;4.38;;;2.30;;
46751;SDS011;32497;48.936;9.270;2023-07-09T01:15:06;3.90;;;2.70;;
46751;SDS011;32497;48.936;9.270;2023-07-09T01:20:08;3.40;;;2.33;;
46751;SDS011;32497;48.936;9.270;2023-07-09T01:25:16;5.45;;;2.30;;
46751;SDS011;32497;48.936;9.270;2023-07-09T01:30:18;3.92;;;2.05;;
46751;SDS011;32497;48.936;9.270;2023-07-09T01:35:21;4.72;;;2.40;;
46751;SDS011;32497;48.936;9.270;2023-07-09T01:40:25;3.70;;;2.40;;
46751;SDS011;32497;48.936;9.270;2023-07-09T01:45:27;4.13;;;2.30;;
46751;SDS011;32497;48.936;9.270;2023-07-09T01:50:29;5.93;;;2.47;;
46751;SDS011;32497;48.936;9.270;2023-07-09T01:55:32;3.58;;;2.35;;
46751;SDS011;32497;48.936;9.270;2023-07-09T02:00:33;3.60;;;2.30;;
46751;SDS011;32497;48.936;9.270;2023-07-09T02:05:37;3.72;;;2.33;;
46751;SDS011;32497;48.936;9.270;2023-07-09T02:10:39;4.75;;;2.63;;
46751;SDS011;32497;48.936;9.270;2023-07-09T02:15:41;4.00;;;2.35;;
46751;SDS011;32497;48.936;9.270;2023-07-09T02:20:45;3.92;;;2.45;;
46751;SDS011;32497;48.936;9.270;2023-07-09T02:25:48;3.20;;;2.20;;
46751;SDS011;32497;48.936;9.270;2023-07-09T02:30:49;3.63;;;2.20;;
46751;SDS011;32497;48.936;9.270;2023-07-09T02:35:50;2.63;;;2.15;;
46751;SDS011;32497;48.936;9.270;2023-07-09T02:40:52;4.07;;;2.38;;
46751;SDS011;32497;48.936;9.270;2023-07-09T02:45:53;3.53;;;2.45;;
46751;SDS011;32497;48.936;9.270;2023-07-09T02:50:54;4.13;;;2.70;;
46751;SDS011;32497;48.936;9.270;2023-07-09T02:55:57;4.45;;;2.47;;
46751;SDS011;32497;48.936;9.270;2023-07-09T03:00:58;3.53;;;2.35;;
46751;SDS011;32497;48.936;9.270;2023-07-09T03:05:59;5.50;;;2.40;;
46751;SDS011;32497;48.936;9.270;2023-07-09T03:11:07;2.85;;;2.05;;
46751;SDS011;32497;48.936;9.270;2023-07-09T03:16:09;5.13;;;2.60;;
46751;SDS011;32497;48.936;9.270;2023-07-09T03:21:11;3.58;;;2.40;;
46751;SDS011;32497;48.936;9.270;2023-07-09T03:26:13;3.30;;;2.45;;
46751;SDS011;32497;48.936;9.270;2023-07-09T03:31:14;4.43;;;2.45;;
46751;SDS011;32497;48.936;9.270;2023-07-09T03:36:16;3.95;;;2.60;;
46751;SDS011;32497;48.936;9.270;2023-07-09T03:41:19;4.65;;;2.45;;
46751;SDS011;32497;48.936;9.270;2023-07-09T03:46:20;3.28;;;2.30;;
46751;SDS011;32497;48.936;9.270;2023-07-09T03:51:21;3.72;;;2.60;;
46751;SDS011;32497;48.936;9.270;2023-07-09T03:56:24;3.78;;;2.33;;
46751;SDS011;32497;48.936;9.270;2023-07-09T04:01:25;4.05;;;2.78;;
46751;SDS011;32497;48.936;9.270;2023-07-09T04:06:26;5.30;;;2.60;;
46751;SDS011;32497;48.936;9.270;2023-07-09T04:11:28;3.45;;;2.50;;
46751;SDS011;32497;48.936;9.270;2023-07-09T04:16:29;5.18;;;2.47;;
46751;SDS011;32497;48.936;9.270;2023-07-09T04:21:31;7.43;;;2.28;;
46751;SDS011;32497;48.936;9.270;2023-07-09T04:26:33;3.00;;;2.33;;
46751;SDS011;32497;48.936;9.270;2023-07-09T04:31:34;5.82;;;2.83;;
46751;SDS011;32497;48.936;9.270;2023-07-09T04:36:35;5.40;;;2.60;;
46751;SDS011;32497;48.936;9.270;2023-07-09T04:41:37;3.63;;;2.20;;
46751;SDS011;32497;48.936;9.270;2023-07-09T04:46:39;3.42;;;2.40;;
46751;SDS011;32497;48.936;9.270;2023-07-09T04:51:40;3.72;;;2.45;;
46751;SDS011;32497;48.936;9.270;2023-07-09T04:56:42;3.20;;;2.22;;
46751;SDS011;32497;48.936;9.270;2023-07-09T05:01:43;7.75;;;2.70;;
46751;SDS011;32497;48.936;9.270;2023-07-09T05:06:44;4.00;;;2.50;;
46751;SDS011;32497;48.936;9.270;2023-07-09T05:11:47;5.07;;;2.63;;
46751;SDS011;32497;48.936;9.270;2023-07-09T05:16:48;3.35;;;2.53;;
46751;SDS011;32497;48.936;9.270;2023-07-09T05:21:49;5.43;;;2.55;;
46751;SDS011;32497;48.936;9.270;2023-07-09T05:26:51;3.55;;;2.40;;
46751;SDS011;32497;48.936;9.270;2023-07-09T05:31:53;3.67;;;2.40;;
46751;SDS011;32497;48.936;9.270;2023-07-09T05:36:54;5.00;;;2.67;;
46751;SDS011;32497;48.936;9.270;2023-07-09T05:41:56;3.17;;;2.30;;
46751;SDS011;32497;48.936;9.270;2023-07-09T05:46:57;4.45;;;3.00;;
46751;SDS011;32497;48.936;9.270;2023-07-09T05:51:58;3.92;;;2.63;;
46751;SDS011;32497;48.936;9.270;2023-07-09T05:57:01;3.85;;;2.92;;
46751;SDS011;32497;48.936;9.270;2023-07-09T06:02:02;5.50;;;3.17;;
46751;SDS011;32497;48.936;9.270;2023-07-09T06:07:04;3.95;;;2.30;;
46751;SDS011;32497;48.936;9.270;2023-07-09T06:12:07;4.88;;;3.00;;
46751;SDS011;32497;48.936;9.270;2023-07-09T06:17:08;4.15;;;2.63;;
46751;SDS011;32497;48.936;9.270;2023-07-09T06:22:09;4.22;;;2.80;;
46751;SDS011;32497;48.936;9.270;2023-07-09T06:27:12;3.67;;;2.95;;
46751;SDS011;32497;48.936;9.270;2023-07-09T06:32:13;9.40;;;3.20;;
46751;SDS011;32497;48.936;9.270;2023-07-09T06:37:14;5.55;;;3.08;;
46751;SDS011;32497;48.936;9.270;2023-07-09T06:42:16;4.10;;;2.80;;
46751;SDS011;32497;48.936;9.270;2023-07-09T06:47:38;8.43;;;7.63;;
46751;SDS011;32497;48.936;9.270;2023-07-09T06:52:40;4.10;;;3.28;;
46751;SDS011;32497;48.936;9.270;2023-07-09T06:57:42;4.88;;;3.10;;
46751;SDS011;32497;48.936;9.270;2023-07-09T07:02:43;5.32;;;2.92;;
46751;SDS011;32497;48.936;9.270;2023-07-09T07:07:44;4.18;;;2.90;;
46751;SDS011;32497;48.936;9.270;2023-07-09T07:12:48;3.67;;;3.05;;
46751;SDS011;32497;48.936;9.270;2023-07-09T07:17:49;3.97;;;3.58;;
46751;SDS011;32497;48.936;9.270;2023-07-09T07:22:50;4.45;;;3.47;;
46751;SDS011;32497;48.936;9.270;2023-07-09T07:27:52;6.03;;;3.63;;
46751;SDS011;32497;48.936;9.270;2023-07-09T07:32:53;3.80;;;3.50;;
46751;SDS011;32497;48.936;9.270;2023-07-09T07:37:54;3.95;;;3.22;;
46751;SDS011;32497;48.936;9.270;2023-07-09T07:42:57;4.45;;;3.65;;
46751;SDS011;32497;48.936;9.270;2023-07-09T07:47:58;6.22;;;3.67;;
46751;SDS011;32497;48.936;9.270;2023-07-09T07:52:59;4.35;;;3.80;;
46751;SDS011;32497;48.936;9.270;2023-07-09T07:58:02;4.35;;;3.60;;
46751;SDS011;32497;48.936;9.270;2023-07-09T08:03:03;6.50;;;3.78;;
46751;SDS011;32497;48.936;9.270;2023-07-09T08:08:04;5.78;;;3.72;;
46751;SDS011;32497;48.936;9.270;2023-07-09T08:13:07;4.88;;;3.85;;
46751;SDS011;32497;48.936;9.270;2023-07-09T08:18:08;4.53;;;3.50;;
46751;SDS011;32497;48.936;9.270;2023-07-09T08:23:09;5.82;;;3.88;;
46751;SDS011;32497;48.936;9.270;2023-07-09T08:28:11;4.40;;;4.00;;
46751;SDS011;32497;48.936;9.270;2023-07-09T08:33:13;5.72;;;4.35;;
46751;SDS011;32497;48.936;9.270;2023-07-09T08:38:14;4.20;;;3.80;;
46751;SDS011;32497;48.936;9.270;2023-07-09T08:43:18;4.68;;;3.50;;
46751;SDS011;32497;48.936;9.270;2023-07-09T08:48:30;4.35;;;3.95;;
46751;SDS011;32497;48.936;9.270;2023-07-09T08:53:34;4.25;;;3.40;;
46751;SDS011;32497;48.936;9.270;2023-07-09T08:58:41;4.47;;;3.80;;
46751;SDS011;32497;48.936;9.270;2023-07-09T09:03:44;3.70;;;3.40;;
46751;SDS011;32497;48.936;9.270;2023-07-09T09:08:52;5.60;;;3.65;;
46751;SDS011;32497;48.936;9.270;2023-07-09T09:14:00;4.35;;;3.40;;
46751;SDS011;32497;48.936;9.270;2023-07-09T09:19:06;3.53;;;3.22;;
46751;SDS011;32497;48.936;9.270;2023-07-09T09:24:19;3.88;;;3.45;;
46751;SDS011;32497;48.936;9.270;2023-07-09T09:29:28;4.13;;;3.55;;
46751;SDS011;32497;48.936;9.270;2023-07-09T09:34:29;4.07;;;3.60;;
46751;SDS011;32497;48.936;9.270;2023-07-09T09:39:30;4.22;;;3.33;;
46751;SDS011;32497;48.936;9.270;2023-07-09T09:44:33;4.95;;;3.38;;
46751;SDS011;32497;48.936;9.270;2023-07-09T09:49:38;4.13;;;3.22;;
46751;SDS011;32497;48.936;9.270;2023-07-09T09:54:40;5.45;;;3.38;;
46751;SDS011;32497;48.936;9.270;2023-07-09T09:59:46;3.88;;;3.30;;
46751;SDS011;32497;48.936;9.270;2023-07-09T10:04:47;3.50;;;3.10;;
46751;SDS011;32497;48.936;9.270;2023-07-09T10:09:50;4.05;;;3.03;;
46751;SDS011;32497;48.936;9.270;2023-07-09T10:14:56;5.93;;;3.50;;
46751;SDS011;32497;48.936;9.270;2023-07-09T10:20:02;4.05;;;3.65;;
46751;SDS011;32497;48.936;9.270;2023-07-09T10:25:12;4.28;;;3.45;;
46751;SDS011;32497;48.936;9.270;2023-07-09T10:30:32;4.55;;;3.40;;
46751;SDS011;32497;48.936;9.270;2023-07-09T10:35:45;3.97;;;3.20;;
46751;SDS011;32497;48.936;9.270;2023-07-09T10:40:54;3.20;;;2.88;;
46751;SDS011;32497;48.936;9.270;2023-07-09T10:46:00;3.13;;;2.83;;
46751;SDS011;32497;48.936;9.270;2023-07-09T10:51:04;3.78;;;3.00;;
46751;SDS011;32497;48.936;9.270;2023-07-09T10:56:20;5.07;;;3.30;;
46751;SDS011;32497;48.936;9.270;2023-07-09T11:01:27;4.43;;;3.00;;
46751;SDS011;32497;48.936;9.270;2023-07-09T11:06:32;3.28;;;2.97;;
46751;SDS011;32497;48.936;9.270;2023-07-09T11:11:37;3.28;;;2.80;;
46751;SDS011;32497;48.936;9.270;2023-07-09T11:16:44;4.45;;;3.15;;
46751;SDS011;32497;48.936;9.270;2023-07-09T11:21:56;3.95;;;3.05;;
46751;SDS011;32497;48.936;9.270;2023-07-09T11:26:59;4.63;;;3.05;;
46751;SDS011;32497;48.936;9.270;2023-07-09T11:32:08;3.60;;;2.90;;
46751;SDS011;32497;48.936;9.270;2023-07-09T11:37:11;5.40;;;3.20;;
46751;SDS011;32497;48.936;9.270;2023-07-09T11:42:26;4.00;;;3.47;;
46751;SDS011;32497;48.936;9.270;2023-07-09T11:47:32;3.60;;;3.30;;
46751;SDS011;32497;48.936;9.270;2023-07-09T11:52:40;3.75;;;3.45;;
46751;SDS011;32497;48.936;9.270;2023-07-09T11:57:46;3.70;;;3.40;;
46751;SDS011;32497;48.936;9.270;2023-07-09T12:02:49;4.35;;;3.60;;
46751;SDS011;32497;48.936;9.270;2023-07-09T12:07:51;5.13;;;3.55;;
46751;SDS011;32497;48.936;9.270;2023-07-09T12:12:55;4.72;;;3.30;;
46751;SDS011;32497;48.936;9.270;2023-07-09T12:18:01;5.65;;;3.50;;
46751;SDS011;32497;48.936;9.270;2023-07-09T12:23:09;6.25;;;3.78;;
46751;SDS011;32497;48.936;9.270;2023-07-09T12:28:13;5.65;;;3.83;;
46751;SDS011;32497;48.936;9.270;2023-07-09T12:33:17;4.72;;;3.25;;
46751;SDS011;32497;48.936;9.270;2023-07-09T12:38:19;4.80;;;3.25;;
46751;SDS011;32497;48.936;9.270;2023-07-09T12:43:23;5.25;;;3.30;;
46751;SDS011;32497;48.936;9.270;2023-07-09T12:48:30;5.20;;;3.60;;
46751;SDS011;32497;48.936;9.270;2023-07-09T12:53:32;4.10;;;3.50;;
46751;SDS011;32497;48.936;9.270;2023-07-09T12:58:36;5.10;;;3.75;;
46751;SDS011;32497;48.936;9.270;2023-07-09T13:03:39;4.30;;;3.67;;
46751;SDS011;32497;48.936;9.270;2023-07-09T13:08:41;4.78;;;3.97;;
46751;SDS011;32497;48.936;9.270;2023-07-09T13:13:53;4.25;;;3.60;;
46751;SDS011;32497;48.936;9.270;2023-07-09T13:18:56;5.18;;;3.75;;
46751;SDS011;32497;48.936;9.270;2023-07-09T13:23:58;4.18;;;3.78;;
46751;SDS011;32497;48.936;9.270;2023-07-09T13:28:59;4.45;;;4.05;;
46751;SDS011;32497;48.936;9.270;2023-07-09T13:34:04;4.90;;;3.80;;
46751;SDS011;32497;48.936;9.270;2023-07-09T13:39:17;3.75;;;3.30;;
46751;SDS011;32497;48.936;9.270;2023-07-09T13:44:19;4.22;;;3.78;;
46751;SDS011;32497;48.936;9.270;2023-07-09T13:49:24;5.05;;;3.90;;
46751;SDS011;32497;48.936;9.270;2023-07-09T13:54:27;4.25;;;3.90;;
46751;SDS011;32497;48.936;9.270;2023-07-09T13:59:30;5.72;;;4.35;;
46751;SDS011;32497;48.936;9.270;2023-07-09T14:04:33;5.95;;;4.05;;
46751;SDS011;32497;48.936;9.270;2023-07-09T14:09:34;6.55;;;4.15;;
46751;SDS011;32497;48.936;9.270;2023-07-09T14:14:35;4.18;;;3.72;;
46751;SDS011;32497;48.936;9.270;2023-07-09T14:19:37;4.65;;;4.22;;
46751;SDS011;32497;48.936;9.270;2023-07-09T14:24:38;4.60;;;3.97;;
46751;SDS011;32497;48.936;9.270;2023-07-09T14:29:40;5.55;;;3.90;;
46751;SDS011;32497;48.936;9.270;2023-07-09T14:34:42;5.28;;;3.80;;
46751;SDS011;32497;48.936;9.270;2023-07-09T14:39:43;5.88;;;4.00;;
46751;SDS011;32497;48.936;9.270;2023-07-09T14:44:44;4.47;;;3.90;;
46751;SDS011;32497;48.936;9.270;2023-07-09T14:49:47;5.25;;;4.32;;
46751;SDS011;32497;48.936;9.270;2023-07-09T14:54:51;4.53;;;4.13;;
46751;SDS011;32497;48.936;9.270;2023-07-09T14:59:52;4.53;;;3.78;;
46751;SDS011;32497;48.936;9.270;2023-07-09T15:04:55;7.25;;;3.70;;
46751;SDS011;32497;48.936;9.270;2023-07-09T15:09:56;5.88;;;3.40;;
46751;SDS011;32497;48.936;9.270;2023-07-09T15:14:59;3.55;;;3.15;;
46751;SDS011;32497;48.936;9.270;2023-07-09T15:20:04;5.32;;;3.35;;
46751;SDS011;32497;48.936;9.270;2023-07-09T15:25:08;4.35;;;3.28;;
46751;SDS011;32497;48.936;9.270;2023-07-09T15:30:15;4.45;;;3.10;;
46751;SDS011;32497;48.936;9.270;2023-07-09T15:35:21;5.15;;;3.15;;
46751;SDS011;32497;48.936;9.270;2023-07-09T15:40:24;4.45;;;3.33;;
46751;SDS011;32497;48.936;9.270;2023-07-09T15:45:27;5.53;;;3.50;;
46751;SDS011;32497;48.936;9.270;2023-07-09T15:50:29;4.45;;;3.30;;
46751;SDS011;32497;48.936;9.270;2023-07-09T15:55:31;4.30;;;3.63;;
46751;SDS011;32497;48.936;9.270;2023-07-09T16:00:32;4.50;;;3.80;;
46751;SDS011;32497;48.936;9.270;2023-07-09T16:05:37;6.50;;;3.55;;
46751;SDS011;32497;48.936;9.270;2023-07-09T16:10:39;5.95;;;3.60;;
46751;SDS011;32497;48.936;9.270;2023-07-09T16:15:40;4.25;;;3.38;;
46751;SDS011;32497;48.936;9.270;2023-07-09T16:20:42;4.13;;;3.60;;
46751;SDS011;32497;48.936;9.270;2023-07-09T16:25:44;4.13;;;3.65;;
46751;SDS011;32497;48.936;9.270;2023-07-09T16:30:48;5.03;;;3.70;;
46751;SDS011;32497;48.936;9.270;2023-07-09T16:35:50;3.85;;;3.28;;
46751;SDS011;32497;48.936;9.270;2023-07-09T16:40:53;4.45;;;3.10;;
46751;SDS011;32497;48.936;9.270;2023-07-09T16:45:54;4.47;;;3.10;;
46751;SDS011;32497;48.936;9.270;2023-07-09T16:50:57;3.85;;;2.90;;
46751;SDS011;32497;48.936;9.270;2023-07-09T16:55:58;3.78;;;3.10;;
46751;SDS011;32497;48.936;9.270;2023-07-09T17:00:59;3.95;;;3.33;;
46751;SDS011;32497;48.936;9.270;2023-07-09T17:06:02;5.53;;;3.50;;
46751;SDS011;32497;48.936;9.270;2023-07-09T17:11:03;3.95;;;3.35;;
46751;SDS011;32497;48.936;9.270;2023-07-09T17:16:08;5.43;;;3.40;;
46751;SDS011;32497;48.936;9.270;2023-07-09T17:21:12;6.20;;;4.00;;
46751;SDS011;32497;48.936;9.270;2023-07-09T17:26:13;5.75;;;3.33;;
46751;SDS011;32497;48.936;9.270;2023-07-09T17:31:14;6.88;;;3.25;;
46751;SDS011;32497;48.936;9.270;2023-07-09T17:36:17;3.67;;;3.30;;
46751;SDS011;32497;48.936;9.270;2023-07-09T17:41:18;3.80;;;2.67;;
46751;SDS011;32497;48.936;9.270;2023-07-09T17:46:19;4.30;;;3.33;;
46751;SDS011;32497;48.936;9.270;2023-07-09T17:51:22;5.85;;;3.38;;
46751;SDS011;32497;48.936;9.270;2023-07-09T17:56:23;4.30;;;3.05;;
46751;SDS011;32497;48.936;9.270;2023-07-09T18:01:24;7.00;;;3.42;;
46751;SDS011;32497;48.936;9.270;2023-07-09T18:06:26;5.28;;;3.22;;
46751;SDS011;32497;48.936;9.270;2023-07-09T18:11:28;7.85;;;3.53;;
46751;SDS011;32497;48.936;9.270;2023-07-09T18:16:29;6.35;;;3.42;;
46751;SDS011;32497;48.936;9.270;2023-07-09T18:21:32;6.07;;;3.30;;
46751;SDS011;32497;48.936;9.270;2023-07-09T18:26:33;5.95;;;4.03;;
46751;SDS011;32497;48.936;9.270;2023-07-09T18:31:34;7.78;;;3.72;;
46751;SDS011;32497;48.936;9.270;2023-07-09T18:36:37;6.38;;;3.35;;
46751;SDS011;32497;48.936;9.270;2023-07-09T18:41:38;5.20;;;3.08;;
46751;SDS011;32497;48.936;9.270;2023-07-09T18:46:39;6.20;;;3.78;;
46751;SDS011;32497;48.936;9.270;2023-07-09T18:51:42;5.88;;;3.10;;
46751;SDS011;32497;48.936;9.270;2023-07-09T18:56:44;6.50;;;3.20;;
46751;SDS011;32497;48.936;9.270;2023-07-09T19:01:47;7.38;;;3.08;;
46751;SDS011;32497;48.936;9.270;2023-07-09T19:06:50;5.70;;;3.30;;
46751;SDS011;32497;48.936;9.270;2023-07-09T19:11:51;5.10;;;2.95;;
46751;SDS011;32497;48.936;9.270;2023-07-09T19:16:53;5.03;;;3.38;;
46751;SDS011;32497;48.936;9.270;2023-07-09T19:21:57;5.78;;;3.63;;
46751;SDS011;32497;48.936;9.270;2023-07-09T19:26:58;5.57;;;3.45;;
46751;SDS011;32497;48.936;9.270;2023-07-09T19:32:00;5.88;;;3.35;;
46751;SDS011;32497;48.936;9.270;2023-07-09T19:37:13;6.82;;;3.53;;
46751;SDS011;32497;48.936;9.270;2023-07-09T19:42:17;6.30;;;3.13;;
46751;SDS011;32497;48.936;9.270;2023-07-09T19:47:21;10.77;;;3.45;;
46751;SDS011;32497;48.936;9.270;2023-07-09T19:52:25;5.78;;;3.58;;
46751;SDS011;32497;48.936;9.270;2023-07-09T19:57:27;5.95;;;3.60;;
46751;SDS011;32497;48.936;9.270;2023-07-09T20:02:28;4.93;;;3.40;;
46751;SDS011;32497;48.936;9.270;2023-07-09T20:07:30;5.97;;;3.20;;
46751;SDS011;32497;48.936;9.270;2023-07-09T20:12:31;5.68;;;3.72;;
46751;SDS011;32497;48.936;9.270;2023-07-09T20:17:33;6.65;;;3.30;;
46751;SDS011;32497;48.936;9.270;2023-07-09T20:22:35;4.85;;;3.00;;
46751;SDS011;32497;48.936;9.270;2023-07-09T20:27:36;6.85;;;3.25;;
46751;SDS011;32497;48.936;9.270;2023-07-09T20:32:38;6.35;;;3.88;;
46751;SDS011;32497;48.936;9.270;2023-07-09T20:37:41;14.48;;;4.00;;
46751;SDS011;32497;48.936;9.270;2023-07-09T20:42:42;6.63;;;3.42;;
46751;SDS011;32497;48.936;9.270;2023-07-09T20:47:44;5.93;;;3.30;;
46751;SDS011;32497;48.936;9.270;2023-07-09T20:52:47;5.22;;;3.42;;
46751;SDS011;32497;48.936;9.270;2023-07-09T20:57:48;5.53;;;3.15;;
46751;SDS011;32497;48.936;9.270;2023-07-09T21:02:50;6.07;;;3.67;;
46751;SDS011;32497;48.936;9.270;2023-07-09T21:07:52;6.22;;;3.50;;
46751;SDS011;32497;48.936;9.270;2023-07-09T21:12:54;5.28;;;3.60;;
46751;SDS011;32497;48.936;9.270;2023-07-09T21:17:55;5.90;;;3.53;;
46751;SDS011;32497;48.936;9.270;2023-07-09T21:22:57;7.40;;;4.25;;
46751;SDS011;32497;48.936;9.270;2023-07-09T21:27:58;8.82;;;3.60;;
46751;SDS011;32497;48.936;9.270;2023-07-09T21:33:00;6.18;;;3.30;;
46751;SDS011;32497;48.936;9.270;2023-07-09T21:38:02;4.93;;;3.10;;
46751;SDS011;32497;48.936;9.270;2023-07-09T21:43:05;5.07;;;3.00;;
46751;SDS011;32497;48.936;9.270;2023-07-09T21:48:09;6.38;;;3.28;;
46751;SDS011;32497;48.936;9.270;2023-07-09T21:53:15;5.82;;;3.40;;
46751;SDS011;32497;48.936;9.270;2023-07-09T21:58:18;6.30;;;3.30;;
46751;SDS011;32497;48.936;9.270;2023-07-09T22:03:19;4.50;;;2.90;;
46751;SDS011;32497;48.936;9.270;2023-07-09T22:08:22;5.95;;;3.20;;
46751;SDS011;32497;48.936;9.270;2023-07-09T22:13:23;4.38;;;3.00;;
46751;SDS011;32497;48.936;9.270;2023-07-09T22:18:24;7.47;;;3.25;;
46751;SDS011;32497;48.936;9.270;2023-07-09T22:23:26;6.68;;;3.30;;
46751;SDS011;32497;48.936;9.270;2023-07-09T22:28:27;4.45;;;3.05;;
46751;SDS011;32497;48.936;9.270;2023-07-09T22:33:28;6.03;;;3.20;;
46751;SDS011;32497;48.936;9.270;2023-07-09T22:38:31;5.95;;;3.17;;
46751;SDS011;32497;48.936;9.270;2023-07-09T22:43:32;5.30;;;2.92;;
46751;SDS011;32497;48.936;9.270;2023-07-09T22:48:33;5.47;;;3.17;;
46751;SDS011;32497;48.936;9.270;2023-07-09T22:53:36;6.75;;;3.17;;
46751;SDS011;32497;48.936;9.270;2023-07-09T22:58:37;4.13;;;2.97;;
46751;SDS011;32497;48.936;9.270;2023-07-09T23:03:39;5.38;;;3.17;;
46751;SDS011;32497;48.936;9.270;2023-07-09T23:08:43;6.15;;;3.42;;
46751;SDS011;32497;48.936;9.270;2023-07-09T23:13:45;4.78;;;2.97;;
46751;SDS011;32497;48.936;9.270;2023-07-09T23:18:47;5.32;;;3.17;;
46751;SDS011;32497;48.936;9.270;2023-07-09T23:23:51;4.78;;;3.35;;
46751;SDS011;32497;48.936;9.270;2023-07-09T23:28:54;5.60;;;3.40;;
46751;SDS011;32497;48.936;9.270;2023-07-09T23:33:56;5.97;;;3.60;;
46751;SDS011;32497;48.936;9.270;2023-07-09T23:38:59;4.68;;;3.25;;
46751;SDS011;32497;48.936;9.270;2023-07-09T23:44:01;6.32;;;3.40;;
46751;SDS011;32497;48.936;9.270;2023-07-09T23:49:04;6.63;;;3.58;;
46751;SDS011;32497;48.936;9.270;2023-07-09T23:54:08;6.43;;;3.30;;
46751;SDS011;32497;48.936;9.270;2023-07-09T23:59:10;5.85;;;3.47;;
